Isabella, Tennessee
Current Conditions -  °F | °C
As of 4:35 PM on Friday 24 Oct 2014 (Local Time) from KRZR Reporting Station
Clear Clear  
Wind Chill: 70°   Ceiling: Unl
Heat Index: 70°   Visibility: 10mi
Dew Point: 39°   Wind: 3mph
Humidity: 33%   Direction: NA
Pressure: 30.04"   Gusts: NA
Location:  35.0276°N, 84.3551°W
Report Text: KRZR 242035Z AUTO VRB03KT 10SM CLR 21/04 A3004 RMK
Loading
Personal Weather Stations






























Interactive Weather Map New forecast layout! Learn more

10-Day Weather Forecast

Advertisements
Track Severe Weather on mobile